createdAt,value
2022-10-05T00:01:48.618Z,1.20
2022-10-05T00:04:25.720Z,1.70
2022-10-05T00:06:55.077Z,1.50
2022-10-05T00:09:22.005Z,1.50
2022-10-05T00:11:48.742Z,1.83
2022-10-05T00:14:28.334Z,1.98
2022-10-05T00:16:55.705Z,1.60
2022-10-05T00:19:32.357Z,1.50
2022-10-05T00:22:06.174Z,1.60
2022-10-05T00:24:32.581Z,1.20
2022-10-05T00:27:00.732Z,1.30
2022-10-05T00:29:27.036Z,1.15
2022-10-05T00:31:53.528Z,0.98
2022-10-05T00:34:19.908Z,0.95
2022-10-05T00:36:46.735Z,0.95
2022-10-05T00:39:13.332Z,1.00
2022-10-05T00:41:58.205Z,0.95
2022-10-05T00:44:30.860Z,1.13
2022-10-05T00:47:06.592Z,0.90
2022-10-05T00:49:35.952Z,0.88
2022-10-05T00:52:22.084Z,0.75
2022-10-05T00:59:45.826Z,1.02
2022-10-05T01:02:18.281Z,0.88
2022-10-05T01:05:03.197Z,0.93
2022-10-05T01:07:37.993Z,0.82
2022-10-05T01:10:07.653Z,0.90
2022-10-05T01:12:52.771Z,0.80
2022-10-05T01:15:29.375Z,1.05
2022-10-05T01:18:00.747Z,1.02
2022-10-05T01:20:53.404Z,1.10
2022-10-05T01:23:28.842Z,1.05
2022-10-05T01:26:24.537Z,1.00
2022-10-05T01:28:50.840Z,1.08
2022-10-05T01:31:20.089Z,0.90
2022-10-05T01:33:51.753Z,1.10
2022-10-05T01:36:25.220Z,0.77
2022-10-05T01:38:57.398Z,0.90
2022-10-05T01:41:27.080Z,0.98
2022-10-05T01:44:00.298Z,0.90
2022-10-05T01:46:36.792Z,0.90
2022-10-05T01:49:18.594Z,1.20
2022-10-05T01:51:57.804Z,1.02
2022-10-05T01:54:27.142Z,1.02
2022-10-05T01:57:08.554Z,1.35
2022-10-05T02:00:01.753Z,1.20
2022-10-05T02:02:29.105Z,1.50
2022-10-05T02:05:03.898Z,1.30
2022-10-05T02:07:34.317Z,1.37
2022-10-05T02:10:07.924Z,1.27
2022-10-05T02:12:36.499Z,1.50
2022-10-05T02:15:13.812Z,1.45
2022-10-05T02:17:44.336Z,1.70
2022-10-05T02:20:11.830Z,1.45
2022-10-05T02:22:40.670Z,1.70
2022-10-05T02:25:09.756Z,1.40
2022-10-05T02:27:39.227Z,1.58
2022-10-05T02:30:06.877Z,1.35
2022-10-05T02:32:40.513Z,1.70
2022-10-05T02:35:17.020Z,1.50
2022-10-05T02:37:50.484Z,1.40
2022-10-05T02:40:28.157Z,1.30
2022-10-05T02:43:03.521Z,1.63
2022-10-05T02:45:29.833Z,1.48
2022-10-05T02:47:56.136Z,1.30
2022-10-05T02:50:27.262Z,1.45
2022-10-05T02:53:02.611Z,2.20
2022-10-05T02:55:37.011Z,1.80
2022-10-05T02:58:19.008Z,1.70
2022-10-05T03:00:55.545Z,1.50
2022-10-05T03:03:27.731Z,1.77
2022-10-05T03:06:05.900Z,1.77
2022-10-05T03:08:43.997Z,1.50
2022-10-05T03:11:26.451Z,1.65
2022-10-05T03:14:04.356Z,1.50
2022-10-05T03:16:54.038Z,1.80
2022-10-05T03:19:39.333Z,1.90
2022-10-05T03:22:14.369Z,1.90
2022-10-05T03:24:56.056Z,1.92
2022-10-05T03:27:55.149Z,2.20
2022-10-05T03:30:23.732Z,2.08
2022-10-05T03:32:58.471Z,2.00
2022-10-05T03:35:34.987Z,1.80
2022-10-05T03:38:01.784Z,1.73
2022-10-05T03:40:28.196Z,1.70
2022-10-05T03:42:54.514Z,2.00
2022-10-05T03:45:30.222Z,2.03
2022-10-05T03:50:40.684Z,1.80
2022-10-05T03:53:14.572Z,1.85
2022-10-05T03:55:43.992Z,1.70
2022-10-05T03:58:19.478Z,1.70
2022-10-05T04:00:48.327Z,2.67
2022-10-05T04:03:36.332Z,1.77
2022-10-05T04:06:07.549Z,2.25
2022-10-05T04:08:59.170Z,2.00
2022-10-05T04:11:32.592Z,1.98
2022-10-05T04:13:58.895Z,1.90
2022-10-05T04:16:29.420Z,2.20
2022-10-05T04:18:55.782Z,1.73
2022-10-05T04:21:27.785Z,2.05
2022-10-05T04:24:04.394Z,2.30
2022-10-05T04:26:35.230Z,2.03
2022-10-05T04:29:02.569Z,2.10
2022-10-05T04:31:36.739Z,2.03
2022-10-05T04:34:07.092Z,2.20
2022-10-05T04:36:53.730Z,2.00
2022-10-05T04:39:43.355Z,2.35
2022-10-05T04:42:09.654Z,2.10
2022-10-05T04:44:44.891Z,2.25
2022-10-05T04:47:29.807Z,2.55
2022-10-05T04:50:06.037Z,2.17
2022-10-05T04:52:38.353Z,2.50
2022-10-05T04:55:37.298Z,2.65
2022-10-05T04:58:22.306Z,2.22
2022-10-05T05:00:51.690Z,2.40
2022-10-05T05:03:23.997Z,2.40
2022-10-05T05:06:15.894Z,2.40
2022-10-05T05:08:56.973Z,2.60
2022-10-05T05:11:34.759Z,2.50
2022-10-05T05:14:16.311Z,2.45
2022-10-05T05:16:57.869Z,2.42
2022-10-05T05:19:27.294Z,2.30
2022-10-05T05:22:05.343Z,3.15
2022-10-05T05:24:34.473Z,2.70
2022-10-05T05:27:03.902Z,2.72
2022-10-05T05:29:47.650Z,2.55
2022-10-05T05:32:33.276Z,2.72
2022-10-05T05:35:18.119Z,3.13
2022-10-05T05:37:53.504Z,3.15
2022-10-05T05:40:32.213Z,3.08
2022-10-05T05:43:17.351Z,2.95
2022-10-05T05:45:48.531Z,3.17
2022-10-05T05:48:21.210Z,4.10
2022-10-05T05:50:57.191Z,4.68
2022-10-05T05:53:28.247Z,3.95
2022-10-05T05:56:14.781Z,3.95
2022-10-05T05:58:45.312Z,3.28
2022-10-05T06:01:33.322Z,3.80
2022-10-05T06:04:12.851Z,3.25
2022-10-05T06:06:42.275Z,3.20
2022-10-05T06:09:32.837Z,3.30
2022-10-05T06:12:04.539Z,3.22
2022-10-05T06:14:46.006Z,3.92
2022-10-05T06:17:15.087Z,4.57
2022-10-05T06:19:42.688Z,3.30
2022-10-05T06:22:15.111Z,3.42
2022-10-05T06:24:44.640Z,3.47
2022-10-05T06:27:16.773Z,4.20
2022-10-05T06:29:43.099Z,3.67
2022-10-05T06:32:16.744Z,3.92
2022-10-05T06:34:58.973Z,4.18
2022-10-05T06:37:40.984Z,4.65
2022-10-05T06:40:26.365Z,4.18
2022-10-05T06:43:02.834Z,2.95
2022-10-05T06:45:41.734Z,4.28
2022-10-05T06:48:08.165Z,4.55
2022-10-05T06:50:37.399Z,3.78
2022-10-05T06:53:24.379Z,4.35
2022-10-05T06:56:23.175Z,4.13
2022-10-05T06:58:49.780Z,3.92
2022-10-05T07:01:21.976Z,4.10
2022-10-05T07:04:05.991Z,4.18
2022-10-05T07:06:43.322Z,4.30
2022-10-05T07:09:18.550Z,4.20
2022-10-05T07:12:03.733Z,3.90
2022-10-05T07:14:37.503Z,3.95
2022-10-05T07:17:03.809Z,3.88
2022-10-05T07:19:52.352Z,3.67
2022-10-05T07:22:37.466Z,4.05
2022-10-05T07:25:11.353Z,3.25
2022-10-05T07:27:49.481Z,3.40
2022-10-05T07:30:18.501Z,3.33
2022-10-05T07:33:05.413Z,2.00
2022-10-05T07:35:53.935Z,2.25
2022-10-05T07:38:21.093Z,1.95
2022-10-05T07:41:13.854Z,1.80
2022-10-05T07:44:01.454Z,1.75
2022-10-05T07:46:37.293Z,1.90
2022-10-05T07:49:22.408Z,1.73
2022-10-05T07:51:52.047Z,1.60
2022-10-05T07:54:18.428Z,1.70
2022-10-05T07:56:47.118Z,1.65
2022-10-05T07:59:16.610Z,2.28
2022-10-05T08:01:47.972Z,1.52
2022-10-05T08:04:19.730Z,1.73
2022-10-05T08:06:52.179Z,1.10
2022-10-05T08:09:18.465Z,1.27
2022-10-05T08:11:54.283Z,1.65
2022-10-05T08:14:28.699Z,1.20
2022-10-05T08:16:57.780Z,1.30
2022-10-05T08:19:29.532Z,1.13
2022-10-05T08:21:58.532Z,1.40
2022-10-05T08:24:27.574Z,1.33
2022-10-05T08:27:23.349Z,1.30
2022-10-05T08:29:52.580Z,1.37
2022-10-05T08:32:18.880Z,1.30
2022-10-05T08:34:54.524Z,1.30
2022-10-05T08:40:05.855Z,1.20
2022-10-05T08:42:44.750Z,1.38
2022-10-05T08:45:11.083Z,1.30
2022-10-05T08:47:55.973Z,0.90
2022-10-05T08:50:31.219Z,1.08
2022-10-05T08:53:03.396Z,1.08
2022-10-05T08:55:35.947Z,1.30
2022-10-05T08:58:40.856Z,1.20
2022-10-05T09:01:27.456Z,1.30
2022-10-05T09:04:04.533Z,1.30
2022-10-05T09:06:51.069Z,1.33
2022-10-05T09:09:17.623Z,1.23
2022-10-05T09:11:53.183Z,1.40
2022-10-05T09:14:42.932Z,1.25
2022-10-05T09:17:12.056Z,1.40
2022-10-05T09:20:08.014Z,1.13
2022-10-05T09:22:40.283Z,1.27
2022-10-05T09:25:25.565Z,1.30
2022-10-05T09:27:56.716Z,1.30
2022-10-05T09:30:41.911Z,1.45
2022-10-05T09:33:13.410Z,1.23
2022-10-05T09:35:42.583Z,1.10
2022-10-05T09:38:15.983Z,1.80
2022-10-05T09:40:47.464Z,1.63
2022-10-05T09:43:22.288Z,1.45
2022-10-05T09:45:59.430Z,1.53
2022-10-05T09:48:25.992Z,1.38
2022-10-05T09:51:04.560Z,1.58
2022-10-05T09:53:40.835Z,1.92
2022-10-05T09:56:09.328Z,1.90
2022-10-05T09:58:35.651Z,1.77
2022-10-05T10:01:09.823Z,1.63
2022-10-05T10:04:01.297Z,1.60
2022-10-05T10:06:33.476Z,1.70
2022-10-05T10:09:08.885Z,1.80
2022-10-05T10:11:41.422Z,1.95
2022-10-05T10:14:23.109Z,2.00
2022-10-05T10:17:01.820Z,2.00
2022-10-05T10:19:40.825Z,1.65
2022-10-05T10:22:25.919Z,1.65
2022-10-05T10:25:03.135Z,1.45
2022-10-05T10:27:56.827Z,1.60
2022-10-05T10:30:27.651Z,1.50
2022-10-05T10:32:57.346Z,1.55
2022-10-05T10:35:42.197Z,1.55
2022-10-05T10:38:23.864Z,1.38
2022-10-05T10:41:09.063Z,1.67
2022-10-05T10:43:54.410Z,1.50
2022-10-05T10:46:31.758Z,1.43
2022-10-05T10:49:16.969Z,1.27
2022-10-05T10:51:58.357Z,1.30
2022-10-05T10:54:27.687Z,1.40
2022-10-05T10:56:55.174Z,1.42
2022-10-05T10:59:26.722Z,1.30
2022-10-05T11:02:18.166Z,1.50
2022-10-05T11:04:58.411Z,1.48
2022-10-05T11:07:27.499Z,1.10
2022-10-05T11:09:53.807Z,1.52
2022-10-05T11:12:33.638Z,1.35
2022-10-05T11:15:19.430Z,1.50
2022-10-05T11:17:45.909Z,1.50
2022-10-05T11:20:21.523Z,1.60
2022-10-05T11:25:17.224Z,1.38
2022-10-05T11:28:02.508Z,1.70
2022-10-05T11:30:36.581Z,1.93
2022-10-05T11:33:18.373Z,2.00
2022-10-05T11:35:56.995Z,1.88
2022-10-05T11:38:42.276Z,1.70
2022-10-05T11:41:25.129Z,1.70
2022-10-05T11:44:10.172Z,1.60
2022-10-05T11:46:39.631Z,1.52
2022-10-05T11:49:08.691Z,1.58
2022-10-05T11:51:35.455Z,1.70
2022-10-05T11:54:18.555Z,1.50
2022-10-05T11:56:52.196Z,1.73
2022-10-05T11:59:29.558Z,1.50
2022-10-05T12:02:14.551Z,1.77
2022-10-05T12:04:56.207Z,1.73
2022-10-05T12:07:29.382Z,1.67
2022-10-05T12:10:14.334Z,1.85
2022-10-05T12:12:45.422Z,1.65
2022-10-05T12:15:18.912Z,1.80
2022-10-05T12:17:52.778Z,1.80
2022-10-05T12:20:19.158Z,1.85
2022-10-05T12:22:49.067Z,1.58
2022-10-05T12:25:21.725Z,1.60
2022-10-05T12:27:52.013Z,1.40
2022-10-05T12:30:37.142Z,1.50
2022-10-05T12:33:03.466Z,1.80
2022-10-05T12:35:48.009Z,1.30
2022-10-05T12:38:23.018Z,1.90
2022-10-05T12:40:52.132Z,1.70
2022-10-05T12:43:21.207Z,1.60
2022-10-05T12:45:53.677Z,1.60
2022-10-05T12:48:30.970Z,1.90
2022-10-05T12:51:04.877Z,1.77
2022-10-05T12:53:48.505Z,1.52
2022-10-05T12:56:23.786Z,1.80
2022-10-05T12:58:56.206Z,1.77
2022-10-05T13:01:37.942Z,1.60
2022-10-05T13:04:04.302Z,1.70
2022-10-05T13:06:57.181Z,1.70
2022-10-05T13:09:23.589Z,1.70
2022-10-05T13:11:55.874Z,1.70
2022-10-05T13:14:41.150Z,1.80
2022-10-05T13:17:15.609Z,1.50
2022-10-05T13:19:50.790Z,1.50
2022-10-05T13:22:32.702Z,1.50
2022-10-05T13:25:17.555Z,1.80
2022-10-05T13:27:52.099Z,1.40
2022-10-05T13:30:21.919Z,1.20
2022-10-05T13:33:01.916Z,1.60
2022-10-05T13:35:43.262Z,1.40
2022-10-05T13:38:28.480Z,1.30
2022-10-05T13:41:04.133Z,1.40
2022-10-05T13:43:44.001Z,1.35
2022-10-05T13:46:10.567Z,1.15
2022-10-05T13:48:55.543Z,1.35
2022-10-05T13:51:23.712Z,1.23
2022-10-05T13:53:56.037Z,1.30
2022-10-05T13:56:28.858Z,1.30
2022-10-05T13:59:15.498Z,1.10
2022-10-05T14:01:43.970Z,1.38
2022-10-05T14:04:21.396Z,1.35
2022-10-05T14:06:48.570Z,1.10
2022-10-05T14:09:21.985Z,1.30
2022-10-05T14:11:50.130Z,1.40
2022-10-05T14:14:25.854Z,1.35
2022-10-05T14:16:52.319Z,1.20
2022-10-05T14:19:21.825Z,1.75
2022-10-05T14:21:52.562Z,1.55
2022-10-05T14:24:43.082Z,2.00
2022-10-05T14:27:18.229Z,1.90
2022-10-05T14:29:44.557Z,1.90
2022-10-05T14:32:15.302Z,1.67
2022-10-05T14:34:45.183Z,2.10
2022-10-05T14:37:32.019Z,1.75
2022-10-05T14:40:19.838Z,1.90
2022-10-05T14:42:47.449Z,1.70
2022-10-05T14:45:25.047Z,1.50
2022-10-05T14:47:51.464Z,1.30
2022-10-05T14:50:21.029Z,1.52
2022-10-05T14:53:03.350Z,1.55
2022-10-05T14:55:43.935Z,1.65
2022-10-05T14:58:19.733Z,1.60
2022-10-05T15:00:50.546Z,1.77
2022-10-05T15:03:31.306Z,1.70
2022-10-05T15:05:59.984Z,1.50
2022-10-05T15:08:26.264Z,1.95
2022-10-05T15:10:56.644Z,1.40
2022-10-05T15:13:25.763Z,1.92
2022-10-05T15:15:54.743Z,1.52
2022-10-05T15:18:21.113Z,1.52
2022-10-05T15:20:56.196Z,1.65
2022-10-05T15:23:34.616Z,1.58
2022-10-05T15:26:07.858Z,1.70
2022-10-05T15:28:34.337Z,1.38
2022-10-05T15:31:03.580Z,1.75
2022-10-05T15:33:33.930Z,1.50
2022-10-05T15:36:09.468Z,1.50
2022-10-05T15:39:00.584Z,1.60
2022-10-05T15:41:30.013Z,1.50
2022-10-05T15:43:56.431Z,1.70
2022-10-05T15:46:35.512Z,1.77
2022-10-05T15:49:08.550Z,1.83
2022-10-05T15:51:42.356Z,2.05
2022-10-05T15:54:39.928Z,1.65
2022-10-05T15:57:21.273Z,1.88
2022-10-05T15:59:57.064Z,2.05
2022-10-05T16:02:29.871Z,1.83
2022-10-05T16:04:59.977Z,2.08
2022-10-05T16:07:50.706Z,2.17
2022-10-05T16:10:17.092Z,2.03
2022-10-05T16:13:02.110Z,1.98
2022-10-05T16:15:33.293Z,1.90
2022-10-05T16:18:18.514Z,2.40
2022-10-05T16:20:50.596Z,2.30
2022-10-05T16:23:26.178Z,2.30
2022-10-05T16:25:55.323Z,2.10
2022-10-05T16:28:40.722Z,2.15
2022-10-05T16:31:10.197Z,2.30
2022-10-05T16:33:43.285Z,2.03
2022-10-05T16:36:28.081Z,2.35
2022-10-05T16:39:00.177Z,2.63
2022-10-05T16:41:33.578Z,2.30
2022-10-05T16:44:12.188Z,2.35
2022-10-05T16:46:42.887Z,2.40
2022-10-05T16:49:22.173Z,2.38
2022-10-05T16:51:49.687Z,2.70
2022-10-05T16:54:21.585Z,3.05
2022-10-05T16:56:53.919Z,2.70
2022-10-05T16:59:26.216Z,2.92
2022-10-05T17:01:58.742Z,2.80
2022-10-05T17:04:31.966Z,2.60
2022-10-05T17:07:10.409Z,2.75
2022-10-05T17:09:55.892Z,2.75
2022-10-05T17:12:31.645Z,3.20
2022-10-05T17:22:26.912Z,3.20
2022-10-05T17:25:00.234Z,3.05
2022-10-05T17:27:50.664Z,2.92
2022-10-05T17:30:26.738Z,2.97
2022-10-05T17:38:22.623Z,3.28
2022-10-05T17:41:05.435Z,3.20
2022-10-05T17:43:32.439Z,3.08
2022-10-05T17:46:06.851Z,3.10
2022-10-05T17:48:48.685Z,3.20
2022-10-05T17:51:33.953Z,3.25
2022-10-05T17:54:36.137Z,2.90
2022-10-05T17:57:02.799Z,2.75
2022-10-05T17:59:51.375Z,2.72
2022-10-05T18:02:36.685Z,3.17
2022-10-05T18:05:04.129Z,2.70
2022-10-05T18:07:31.124Z,2.80
2022-10-05T18:10:00.233Z,2.97
2022-10-05T18:12:26.736Z,3.00
2022-10-05T18:14:55.897Z,2.70
2022-10-05T18:17:41.239Z,2.97
2022-10-05T18:20:09.976Z,2.80
2022-10-05T18:22:36.573Z,2.40
2022-10-05T18:25:05.933Z,2.70
2022-10-05T18:27:44.047Z,2.47
2022-10-05T18:30:13.402Z,2.53
2022-10-05T18:32:39.709Z,2.50
2022-10-05T18:35:13.117Z,2.47
2022-10-05T18:38:02.683Z,2.50
2022-10-05T18:40:47.491Z,2.33
2022-10-05T18:43:22.325Z,2.15
2022-10-05T18:45:59.832Z,2.30
2022-10-05T18:48:35.619Z,2.22
2022-10-05T18:53:43.665Z,2.40
2022-10-05T18:56:25.968Z,2.30
2022-10-05T18:58:56.680Z,2.50
2022-10-05T19:01:41.011Z,2.08
2022-10-05T19:04:26.524Z,2.25
2022-10-05T19:07:11.923Z,2.10
2022-10-05T19:09:38.867Z,2.40
2022-10-05T19:12:14.321Z,1.85
2022-10-05T19:14:46.159Z,2.10
2022-10-05T19:17:21.461Z,2.33
2022-10-05T19:19:50.782Z,2.13
2022-10-05T19:22:34.329Z,2.08
2022-10-05T19:25:19.333Z,1.98
2022-10-05T19:27:55.194Z,1.80
2022-10-05T19:30:27.168Z,2.42
2022-10-05T19:33:04.978Z,1.95
2022-10-05T19:35:34.953Z,1.88
2022-10-05T19:38:15.225Z,2.03
2022-10-05T19:40:46.507Z,2.17
2022-10-05T19:43:31.510Z,1.90
2022-10-05T19:46:05.495Z,1.85
2022-10-05T19:48:36.262Z,2.00
2022-10-05T19:51:05.295Z,1.90
2022-10-05T19:53:38.357Z,1.90
2022-10-05T19:56:20.017Z,1.80
2022-10-05T19:58:46.657Z,1.70
2022-10-05T20:01:24.048Z,1.58
2022-10-05T20:03:51.339Z,1.70
2022-10-05T20:06:22.570Z,1.60
2022-10-05T20:08:50.315Z,1.80
2022-10-05T20:11:23.298Z,1.55
2022-10-05T20:13:52.799Z,1.92
2022-10-05T20:16:38.043Z,1.45
2022-10-05T20:19:23.600Z,1.73
2022-10-05T20:21:52.709Z,1.63
2022-10-05T20:24:26.245Z,1.88
2022-10-05T20:27:02.718Z,1.92
2022-10-05T20:29:29.795Z,1.83
2022-10-05T20:31:56.539Z,1.70
2022-10-05T20:34:23.312Z,1.88
2022-10-05T20:36:50.914Z,1.70
2022-10-05T20:39:18.273Z,1.98
2022-10-05T20:41:45.064Z,1.55
2022-10-05T20:44:12.684Z,1.80
2022-10-05T20:46:41.610Z,2.03
2022-10-05T20:49:10.620Z,1.73
2022-10-05T20:51:38.318Z,1.70
2022-10-05T20:54:05.045Z,1.83
2022-10-05T20:56:33.916Z,2.00
2022-10-05T20:59:00.387Z,2.00
2022-10-05T21:01:27.714Z,2.03
2022-10-05T21:03:54.423Z,1.88
2022-10-05T21:06:29.378Z,1.80
2022-10-05T21:08:55.826Z,2.15
2022-10-05T21:11:22.227Z,1.98
2022-10-05T21:13:49.391Z,1.80
2022-10-05T21:16:17.202Z,2.10
2022-10-05T21:18:45.571Z,2.03
2022-10-05T21:21:11.947Z,2.20
2022-10-05T21:23:38.366Z,2.08
2022-10-05T21:26:04.809Z,2.10
2022-10-05T21:28:32.379Z,1.90
2022-10-05T21:30:59.093Z,2.35
2022-10-05T21:33:25.776Z,2.08
2022-10-05T21:35:52.368Z,2.10
2022-10-05T21:38:18.707Z,2.45
2022-10-05T21:40:45.559Z,2.20
2022-10-05T21:43:13.414Z,2.15
2022-10-05T21:45:40.239Z,2.30
2022-10-05T21:48:06.967Z,2.20
2022-10-05T21:50:33.979Z,1.85
2022-10-05T21:53:02.230Z,2.10
2022-10-05T21:55:28.827Z,2.10
2022-10-05T21:57:56.509Z,2.45
2022-10-05T22:00:23.060Z,2.05
2022-10-05T22:02:49.593Z,2.08
2022-10-05T22:05:16.011Z,2.38
2022-10-05T22:07:42.394Z,1.88
2022-10-05T22:10:09.613Z,2.00
2022-10-05T22:12:37.856Z,2.08
2022-10-05T22:15:06.252Z,2.13
2022-10-05T22:17:32.629Z,2.08
2022-10-05T22:19:59.651Z,2.38
2022-10-05T22:22:26.489Z,2.30
2022-10-05T22:24:52.945Z,2.55
2022-10-05T22:27:22.775Z,1.92
2022-10-05T22:29:49.239Z,2.22
2022-10-05T22:32:15.575Z,2.20
2022-10-05T22:34:41.895Z,2.22
2022-10-05T22:37:09.696Z,2.08
2022-10-05T22:39:36.051Z,2.30
2022-10-05T22:42:02.402Z,2.20
2022-10-05T22:44:28.965Z,2.38
2022-10-05T22:46:55.419Z,2.20
2022-10-05T22:49:21.828Z,2.10
2022-10-05T22:51:49.205Z,2.28
2022-10-05T22:54:15.736Z,1.98
2022-10-05T22:56:42.249Z,2.10
2022-10-05T22:59:08.584Z,2.10
2022-10-05T23:01:34.950Z,2.10
2022-10-05T23:04:01.602Z,2.20
2022-10-05T23:06:27.910Z,1.90
2022-10-05T23:08:54.893Z,2.20
2022-10-05T23:11:23.655Z,2.22
2022-10-05T23:13:52.757Z,2.30
2022-10-05T23:16:20.659Z,2.13
2022-10-05T23:18:48.527Z,2.00
2022-10-05T23:21:14.809Z,2.03
2022-10-05T23:23:42.994Z,2.22
2022-10-05T23:26:10.435Z,2.28
2022-10-05T23:28:38.787Z,2.10
2022-10-05T23:31:06.231Z,1.70
2022-10-05T23:33:33.106Z,2.17
2022-10-05T23:35:59.433Z,2.10
2022-10-05T23:38:26.244Z,2.05
2022-10-05T23:40:52.916Z,2.15
2022-10-05T23:43:19.458Z,2.20
2022-10-05T23:45:46.474Z,2.25
2022-10-05T23:48:13.355Z,2.08
2022-10-05T23:50:40.635Z,1.60
2022-10-05T23:53:06.939Z,1.90
2022-10-05T23:55:34.446Z,1.85
2022-10-05T23:58:01.853Z,1.92
